Ellen Najad 460 — SMWO — position and weather

sailwx.info

Track history (hours):
 
Tides and Currents Weather Stations Pressure Air Temp Water Temp Dewpoint Dewpoint Depression Visibility Wind Speed Wind Dir Waves Ship Positions

Ellen Najad 460

Last reported at 2018-Jul-30 23:41 UTC. Time now 2018-Aug-19 22:52 UTC.
Position N 56°12' E 012°33'.
Warning: this ship's position is 19 days out of date.

Length 14 m.

Type: Sailing vessel. MMSI: 265574250.

Date/timePositionNaut miles runAvg speedWind from/ knotsBaromVisibWave heightAir tempDewpointWater temp
2018-Jul-30 23:41N 56°12' E 012°33'  
2018-Jul-26 09:06N 56°02' E 012°38'1 6.6
2018-Jul-26 09:00N 56°01' E 012°38'3 7.0
2018-Jul-26 08:30N 55°58' E 012°39'3 6.9
2018-Jul-26 08:00N 55°54' E 012°40'0 0.4
2018-Jul-26 07:29N 55°54' E 012°40'0 0.0
2018-Jul-26 06:56N 55°54' E 012°40'0 0.0
2018-Jul-26 06:29N 55°54' E 012°40'0 0.0
2018-Jul-26 05:59N 55°54' E 012°40'0 0.0
2018-Jul-26 05:29N 55°54' E 012°40'0 0.0
2018-Jul-26 04:59N 55°54' E 012°40'0 0.0
2018-Jul-26 04:29N 55°54' E 012°40'0 0.0
2018-Jul-26 03:59N 55°54' E 012°40'0 0.0
2018-Jul-26 03:29N 55°54' E 012°40'0 0.0
2018-Jul-26 02:56N 55°54' E 012°40'0 0.0
2018-Jul-26 02:23N 55°54' E 012°40'0 0.0
2018-Jul-26 01:59N 55°54' E 012°40'0 0.0
2018-Jul-26 01:29N 55°54' E 012°40'0 0.0
2018-Jul-26 00:59N 55°54' E 012°40'0 0.0
2018-Jul-26 00:29N 55°54' E 012°40'0 0.0
2018-Jul-25 23:59N 55°54' E 012°40'0 0.0
2018-Jul-25 23:29N 55°54' E 012°40'0 0.0
2018-Jul-25 22:59N 55°54' E 012°40'0 0.0
2018-Jul-25 22:26N 55°54' E 012°40'0 0.0
2018-Jul-25 21:59N 55°54' E 012°40'0 0.0
2018-Jul-25 21:26N 55°54' E 012°40'0 0.0
2018-Jul-25 20:59N 55°54' E 012°40'0 0.0
2018-Jul-25 20:29N 55°54' E 012°40'0 0.0
2018-Jul-25 19:56N 55°54' E 012°40'0 0.0
2018-Jul-25 19:26N 55°54' E 012°40'0 0.0
2018-Jul-25 18:59N 55°54' E 012°40'0 0.0
2018-Jul-25 18:29N 55°54' E 012°40'0 0.0
2018-Jul-25 17:59N 55°54' E 012°40'0 0.0
2018-Jul-25 17:29N 55°54' E 012°40'0 0.0
2018-Jul-25 16:56N 55°54' E 012°40'0 0.0
2018-Jul-25 16:29N 55°54' E 012°40'0 0.0
2018-Jul-25 15:59N 55°54' E 012°40'0 0.0
2018-Jul-25 15:29N 55°54' E 012°40'0 0.0
2018-Jul-25 14:59N 55°54' E 012°40'0 0.3
2018-Jul-25 14:30N 55°54' E 012°41'1 0.9
2018-Jul-25 13:50N 55°54' E 012°41'0 0.0
2018-Jul-25 13:29N 55°54' E 012°41'0 0.0
2018-Jul-25 12:59N 55°54' E 012°41'0 0.0
2018-Jul-25 12:26N 55°54' E 012°41'0 0.0
2018-Jul-25 11:52N 55°54' E 012°41'1 3.7
2018-Jul-25 11:30N 55°55' E 012°39'3 6.6
2018-Jul-25 11:00N 55°58' E 012°38'3 6.8
2018-Jul-25 10:30N 56°01' E 012°38'  
Track history (hours):
 
Tides and Currents Weather Stations Pressure Air Temp Water Temp Dewpoint Dewpoint Depression Visibility Wind Speed Wind Dir Waves Ship Positions

Ellen Najad 460

Last reported at 2018-Jul-30 23:41 UTC. Time now 2018-Aug-19 22:52 UTC.
Position N 56°12' E 012°33'.
Warning: this ship's position is 19 days out of date.

Length 14 m.

Type: Sailing vessel. MMSI: 265574250.

Date/timePositionNaut miles runAvg speedWind from/ knotsBaromVisibWave heightAir tempDewpointWater temp
2018-Jul-30 23:41N 56°12' E 012°33'  
2018-Jul-26 09:06N 56°02' E 012°38'1 6.6
2018-Jul-26 09:00N 56°01' E 012°38'3 7.0
2018-Jul-26 08:30N 55°58' E 012°39'3 6.9
2018-Jul-26 08:00N 55°54' E 012°40'0 0.4
2018-Jul-26 07:29N 55°54' E 012°40'0 0.0
2018-Jul-26 06:56N 55°54' E 012°40'0 0.0
2018-Jul-26 06:29N 55°54' E 012°40'0 0.0
2018-Jul-26 05:59N 55°54' E 012°40'0 0.0
2018-Jul-26 05:29N 55°54' E 012°40'0 0.0
2018-Jul-26 04:59N 55°54' E 012°40'0 0.0
2018-Jul-26 04:29N 55°54' E 012°40'0 0.0
2018-Jul-26 03:59N 55°54' E 012°40'0 0.0
2018-Jul-26 03:29N 55°54' E 012°40'0 0.0
2018-Jul-26 02:56N 55°54' E 012°40'0 0.0
2018-Jul-26 02:23N 55°54' E 012°40'0 0.0
2018-Jul-26 01:59N 55°54' E 012°40'0 0.0
2018-Jul-26 01:29N 55°54' E 012°40'0 0.0
2018-Jul-26 00:59N 55°54' E 012°40'0 0.0
2018-Jul-26 00:29N 55°54' E 012°40'0 0.0
2018-Jul-25 23:59N 55°54' E 012°40'0 0.0
2018-Jul-25 23:29N 55°54' E 012°40'0 0.0
2018-Jul-25 22:59N 55°54' E 012°40'0 0.0
2018-Jul-25 22:26N 55°54' E 012°40'0 0.0
2018-Jul-25 21:59N 55°54' E 012°40'0 0.0
2018-Jul-25 21:26N 55°54' E 012°40'0 0.0
2018-Jul-25 20:59N 55°54' E 012°40'0 0.0
2018-Jul-25 20:29N 55°54' E 012°40'0 0.0
2018-Jul-25 19:56N 55°54' E 012°40'0 0.0
2018-Jul-25 19:26N 55°54' E 012°40'0 0.0
2018-Jul-25 18:59N 55°54' E 012°40'0 0.0
2018-Jul-25 18:29N 55°54' E 012°40'0 0.0
2018-Jul-25 17:59N 55°54' E 012°40'0 0.0
2018-Jul-25 17:29N 55°54' E 012°40'0 0.0
2018-Jul-25 16:56N 55°54' E 012°40'0 0.0
2018-Jul-25 16:29N 55°54' E 012°40'0 0.0
2018-Jul-25 15:59N 55°54' E 012°40'0 0.0
2018-Jul-25 15:29N 55°54' E 012°40'0 0.0
2018-Jul-25 14:59N 55°54' E 012°40'0 0.3
2018-Jul-25 14:30N 55°54' E 012°41'1 0.9
2018-Jul-25 13:50N 55°54' E 012°41'0 0.0
2018-Jul-25 13:29N 55°54' E 012°41'0 0.0
2018-Jul-25 12:59N 55°54' E 012°41'0 0.0
2018-Jul-25 12:26N 55°54' E 012°41'0 0.0
2018-Jul-25 11:52N 55°54' E 012°41'1 3.7
2018-Jul-25 11:30N 55°55' E 012°39'3 6.6
2018-Jul-25 11:00N 55°58' E 012°38'3 6.8
2018-Jul-25 10:30N 56°01' E 012°38'  

Dump ship's entire track history